Time;durP1;ratioP1;P1;durP2;ratioP2;P2;SDS_P1;SDS_P2;PMS_P1;PMS_P2;Temp;Humidity;BMP_temperature;BMP_pressure;BME280_temperature;BME280_humidity;BME280_pressure;Samples;Min_cycle;Max_cycle;Signal;HPM_P1;HPM_P2
2021/12/06 00:03:25;;;;;;;;;;;1.60;99.90;;;0.38;100.00;94753.66;10423289;28;1914;-82
2021/12/06 00:08:29;;;;;;;;;;;1.60;99.90;;;0.34;100.00;94752.53;10442327;28;1879;-85
2021/12/06 00:13:32;;;;;;;;;;;2.20;99.90;;;0.37;100.00;94751.22;10444644;28;1784;-83
2021/12/06 00:18:36;;;;;;;;;;;1.50;99.90;;;0.34;100.00;94757.81;10430732;28;1916;-83
2021/12/06 00:23:39;;;;;;;;;;;1.50;99.90;;;0.28;100.00;94758.75;10422831;28;2019;-84
2021/12/06 00:28:43;;;;;;;;;;;1.50;99.90;;;0.29;100.00;94770.13;10412638;28;1710;-84
2021/12/06 00:33:52;;;;;;;;;;;1.40;99.90;;;0.28;100.00;94773.78;10414733;28;1854;-82
2021/12/06 00:38:58;;;;;;;;;;;1.50;99.90;;;0.29;100.00;94773.56;10425164;28;1861;-86
2021/12/06 00:44:02;;;;;;;;;;;1.50;99.90;;;0.33;100.00;94780.00;10417099;28;1890;-83
2021/12/06 00:49:06;;;;;;;;;;;1.50;99.90;;;0.38;100.00;94788.03;10411805;28;1684;-83
2021/12/06 00:54:10;;;;;;;;;;;1.50;99.90;;;0.13;100.00;94798.09;10404934;28;1948;-83
2021/12/06 00:59:13;;;;;;;;;;;1.70;99.90;;;0.29;100.00;94799.19;10422660;28;2003;-83
2021/12/06 01:04:16;;;;;;;;;;;1.40;99.90;;;0.41;100.00;94797.31;10410895;28;1899;-82
2021/12/06 01:09:19;;;;;;;;;;;1.50;99.90;;;0.37;100.00;94790.88;10410030;28;1988;-84
2021/12/06 01:14:22;;;;;;;;;;;1.60;99.90;;;0.44;100.00;94804.78;10410941;28;1872;-83
2021/12/06 01:19:29;;;;;;;;;;;1.60;99.90;;;0.39;100.00;94815.28;10410944;28;1887;-84
2021/12/06 01:24:41;;;;;;;;;;;1.60;99.90;;;0.37;100.00;94820.75;10412996;28;1979;-80
2021/12/06 01:30:15;;;;;;;;;;;1.50;99.90;;;0.17;100.00;94828.28;10427853;28;1586;-83
2021/12/06 01:40:47;;;;;;;;;;;1.30;99.90;;;0.05;100.00;94846.78;10423469;28;1753;-83
2021/12/06 01:45:50;;;;;;;;;;;1.20;99.90;;;-0.04;100.00;94854.25;10411764;28;2147;-83
2021/12/06 01:50:53;;;;;;;;;;;1.10;99.90;;;-0.04;100.00;94856.91;10425019;28;1942;-82
2021/12/06 01:55:56;;;;;;;;;;;1.80;99.90;;;0.01;100.00;94858.84;10425522;28;1664;-80
2021/12/06 02:00:59;;;;;;;;;;;1.60;99.90;;;0.07;100.00;94865.06;10401966;28;1832;-83
2021/12/06 02:06:03;;;;;;;;;;;1.20;99.90;;;-0.01;100.00;94860.91;10420235;28;1949;-83
2021/12/06 02:11:06;;;;;;;;;;;1.20;99.90;;;0.13;100.00;94856.22;10405485;28;1805;-83
2021/12/06 02:16:09;;;;;;;;;;;1.20;99.90;;;0.22;100.00;94865.41;10403830;28;1324;-83
2021/12/06 02:21:39;;;;;;;;;;;1.80;99.90;;;0.28;100.00;94867.13;10418213;28;2177;-83
2021/12/06 02:27:02;;;;;;;;;;;1.40;99.90;;;0.45;100.00;94857.44;10445805;28;2037;-83
2021/12/06 02:32:17;;;;;;;;;;;2.10;99.90;;;0.53;100.00;94862.38;10411704;28;1851;-82
2021/12/06 02:37:20;;;;;;;;;;;2.40;99.90;;;0.61;100.00;94863.03;10428455;28;1794;-85
2021/12/06 02:42:23;;;;;;;;;;;1.70;99.90;;;0.65;100.00;94864.19;10409197;28;2077;-84
2021/12/06 02:47:26;;;;;;;;;;;1.70;99.90;;;0.73;100.00;94869.09;10413898;28;2270;-82
2021/12/06 02:52:29;;;;;;;;;;;1.70;99.90;;;0.84;100.00;94873.56;10427738;28;2115;-83
2021/12/06 02:57:36;;;;;;;;;;;1.80;99.90;;;0.99;100.00;94873.06;10418022;28;2048;-83
2021/12/06 03:02:40;;;;;;;;;;;2.20;99.90;;;0.88;100.00;94881.81;10417656;28;2029;-85
2021/12/06 03:07:47;;;;;;;;;;;1.90;99.90;;;0.88;100.00;94890.56;10403292;28;2365;-83
2021/12/06 03:12:49;;;;;;;;;;;1.90;99.90;;;0.99;100.00;94897.66;10410174;28;2076;-82
2021/12/06 03:17:53;;;;;;;;;;;2.00;99.90;;;0.85;100.00;94903.47;10420533;28;1940;-82
2021/12/06 03:22:56;;;;;;;;;;;2.00;99.90;;;0.85;100.00;94901.63;10398442;28;2088;-81
2021/12/06 03:27:59;;;;;;;;;;;2.40;99.90;;;0.82;100.00;94902.06;10399577;28;2177;-82
2021/12/06 03:33:02;;;;;;;;;;;2.00;99.90;;;0.85;100.00;94908.75;10404965;28;1901;-81
2021/12/06 03:38:05;;;;;;;;;;;2.00;99.90;;;0.83;100.00;94911.66;10422096;28;1602;-82
2021/12/06 03:43:09;;;;;;;;;;;1.90;99.90;;;0.93;100.00;94919.78;10416091;28;1971;-82
2021/12/06 03:48:12;;;;;;;;;;;2.00;99.90;;;0.91;100.00;94921.88;10412089;28;1988;-84
2021/12/06 03:53:17;;;;;;;;;;;2.70;99.90;;;0.94;100.00;94937.25;10428795;28;2069;-84
2021/12/06 03:58:25;;;;;;;;;;;2.00;99.90;;;0.99;100.00;94940.00;10434879;28;2178;-86
2021/12/06 04:03:28;;;;;;;;;;;2.90;99.90;;;1.04;100.00;94940.13;10449043;28;1960;-83
2021/12/06 04:08:32;;;;;;;;;;;2.10;99.90;;;0.96;100.00;94937.84;10426908;28;2013;-85
2021/12/06 04:13:35;;;;;;;;;;;2.00;99.90;;;0.78;100.00;94944.09;10433980;28;2054;-85
2021/12/06 04:18:58;;;;;;;;;;;2.00;99.90;;;0.84;100.00;94950.28;10464092;28;1990;-87
2021/12/06 04:24:23;;;;;;;;;;;2.00;99.90;;;0.92;100.00;94957.06;10464458;28;2001;-89
2021/12/06 04:29:26;;;;;;;;;;;2.00;99.90;;;0.90;100.00;94967.09;10417706;28;2122;-84
2021/12/06 04:34:30;;;;;;;;;;;2.00;99.90;;;0.80;100.00;94963.16;10412139;28;1431;-81
2021/12/06 04:39:33;;;;;;;;;;;3.10;99.90;;;0.67;100.00;94973.19;10415238;28;2088;-81
2021/12/06 04:44:36;;;;;;;;;;;1.90;99.90;;;0.54;100.00;94985.63;10408218;28;1990;-83
2021/12/06 04:49:40;;;;;;;;;;;2.20;99.90;;;0.61;100.00;94979.41;10416001;28;2329;-81
2021/12/06 04:54:43;;;;;;;;;;;1.70;99.90;;;0.63;100.00;94987.91;10418263;28;1343;-83
2021/12/06 04:59:46;;;;;;;;;;;2.40;99.90;;;0.65;100.00;94993.78;10410133;28;1932;-81
2021/12/06 05:04:49;;;;;;;;;;;1.80;99.90;;;0.70;100.00;94999.16;10415266;28;1981;-82
2021/12/06 05:09:52;;;;;;;;;;;1.70;99.90;;;0.70;100.00;95007.94;10425143;28;2117;-82
2021/12/06 05:14:56;;;;;;;;;;;1.70;99.90;;;0.72;100.00;95018.28;10436730;28;2365;-79
2021/12/06 05:19:59;;;;;;;;;;;1.80;99.90;;;0.75;100.00;95012.50;10433912;28;2064;-82
2021/12/06 05:25:02;;;;;;;;;;;2.00;99.90;;;0.78;100.00;95017.34;10416638;28;2111;-84
2021/12/06 05:30:09;;;;;;;;;;;2.90;99.90;;;0.93;100.00;95025.63;10413151;28;1971;-83
2021/12/06 05:35:14;;;;;;;;;;;1.90;99.90;;;0.80;100.00;95028.50;10397110;28;2222;-83
2021/12/06 05:40:17;;;;;;;;;;;2.10;99.90;;;0.84;100.00;95036.81;10426205;28;2042;-81
2021/12/06 05:45:21;;;;;;;;;;;1.90;99.90;;;0.84;100.00;95034.97;10422636;28;2011;-83
2021/12/06 05:50:24;;;;;;;;;;;1.90;99.90;;;0.81;100.00;95052.09;10399003;28;2028;-83
2021/12/06 05:55:28;;;;;;;;;;;1.80;99.90;;;0.78;100.00;95054.41;10422587;28;2182;-86
2021/12/06 06:00:32;;;;;;;;;;;1.80;99.90;;;0.73;100.00;95067.50;10420969;28;1482;-84
2021/12/06 06:05:36;;;;;;;;;;;1.80;99.90;;;0.66;100.00;95072.09;10421171;28;2026;-83
2021/12/06 06:10:39;;;;;;;;;;;1.70;99.90;;;0.54;100.00;95083.47;10402276;28;2004;-84
2021/12/06 06:15:43;;;;;;;;;;;1.70;99.90;;;0.57;100.00;95091.97;10421266;28;2052;-83
2021/12/06 06:20:46;;;;;;;;;;;1.60;99.90;;;0.54;100.00;95107.25;10420708;28;2013;-84
2021/12/06 06:25:57;;;;;;;;;;;1.60;99.90;;;0.44;100.00;95109.66;10397057;28;2076;-83
2021/12/06 06:31:01;;;;;;;;;;;2.30;99.90;;;0.43;100.00;95115.97;10438445;28;2040;-87
2021/12/06 06:36:04;;;;;;;;;;;1.50;99.90;;;0.49;100.00;95128.28;10415691;28;1984;-83
2021/12/06 06:41:07;;;;;;;;;;;1.50;99.90;;;0.44;100.00;95133.44;10408655;28;2179;-84
2021/12/06 06:46:10;;;;;;;;;;;1.50;99.90;;;0.52;100.00;95135.78;10410950;28;1972;-83
2021/12/06 06:51:14;;;;;;;;;;;2.20;99.90;;;0.47;100.00;95148.88;10407595;28;2120;-82
2021/12/06 06:56:17;;;;;;;;;;;1.60;99.90;;;0.54;100.00;95154.88;10404578;28;1382;-83
2021/12/06 07:01:21;;;;;;;;;;;2.50;99.90;;;0.55;100.00;95155.66;10404613;28;1580;-83
2021/12/06 07:06:24;;;;;;;;;;;1.80;99.90;;;0.50;100.00;95174.84;10427938;28;2163;-88
2021/12/06 07:11:41;;;;;;;;;;;2.40;99.90;;;0.60;100.00;95178.81;10414825;28;1931;-82
2021/12/06 07:16:47;;;;;;;;;;;1.70;99.90;;;0.64;100.00;95179.97;10418865;28;2068;-87
2021/12/06 07:21:50;;;;;;;;;;;1.90;99.90;;;0.30;100.00;95200.75;10434735;28;1678;-87
2021/12/06 07:26:58;;;;;;;;;;;2.00;99.90;;;0.27;100.00;95201.22;10413478;28;1901;-87
2021/12/06 07:32:03;;;;;;;;;;;2.40;99.90;;;0.37;100.00;95201.47;10442745;28;1853;-88
2021/12/06 07:37:06;;;;;;;;;;;1.40;99.90;;;0.38;100.00;95213.69;10442068;28;1764;-87
2021/12/06 07:42:11;;;;;;;;;;;1.40;99.90;;;0.48;100.00;95213.94;10434858;28;1963;-83
2021/12/06 07:47:17;;;;;;;;;;;1.50;99.90;;;0.59;100.00;95222.97;10424191;28;1875;-89
2021/12/06 08:10:33;;;;;;;;;;;1.90;99.90;;;0.92;100.00;95235.72;10284483;28;1706;-87
2021/12/06 08:15:36;;;;;;;;;;;1.80;99.90;;;1.18;100.00;95239.00;10375957;28;1881;-88
2021/12/06 08:26:27;;;;;;;;;;;2.10;99.90;;;0.89;100.00;95254.69;10400333;28;1948;-84
2021/12/06 08:31:45;;;;;;;;;;;1.90;99.90;;;1.03;100.00;95261.41;10433843;28;1376;-84
2021/12/06 08:36:49;;;;;;;;;;;2.60;99.90;;;1.32;100.00;95261.56;10410801;28;1881;-83
2021/12/06 08:41:54;;;;;;;;;;;2.40;99.90;;;1.06;100.00;95266.25;10419814;28;1877;-88
2021/12/06 08:46:57;;;;;;;;;;;2.10;99.90;;;1.23;100.00;95257.66;10412786;28;1994;-87
2021/12/06 08:52:06;;;;;;;;;;;2.20;99.90;;;1.29;100.00;95259.41;10412575;28;2056;-83
2021/12/06 09:02:56;;;;;;;;;;;2.20;99.90;;;1.65;100.00;95282.22;10420015;28;1774;-83
2021/12/06 09:08:03;;;;;;;;;;;3.30;99.90;;;1.83;100.00;95289.25;10405029;28;1906;-82
2021/12/06 09:13:06;;;;;;;;;;;2.90;99.90;;;1.87;100.00;95296.53;10407034;28;2060;-82
2021/12/06 09:18:10;;;;;;;;;;;2.70;99.90;;;2.01;100.00;95290.97;10407923;28;2145;-83
2021/12/06 09:23:15;;;;;;;;;;;3.60;99.90;;;2.05;100.00;95285.00;10405410;28;1876;-83
2021/12/06 09:28:21;;;;;;;;;;;2.80;99.90;;;2.08;100.00;95289.03;10403509;28;1945;-82
2021/12/06 09:33:25;;;;;;;;;;;3.80;99.90;;;2.03;100.00;95292.34;10413208;28;2256;-81
2021/12/06 09:38:33;;;;;;;;;;;3.00;99.90;;;2.37;100.00;95289.91;10415989;28;2283;-82
2021/12/06 09:43:39;;;;;;;;;;;3.10;99.90;;;2.33;100.00;95294.06;10396088;28;1814;-82
2021/12/06 09:48:42;;;;;;;;;;;3.20;99.90;;;2.08;100.00;95289.81;10403924;28;1965;-80
2021/12/06 09:53:45;;;;;;;;;;;3.00;99.90;;;1.96;100.00;95285.56;10390569;28;1889;-82
2021/12/06 09:58:48;;;;;;;;;;;3.00;99.90;;;2.32;100.00;95287.94;10435235;28;2035;-84
2021/12/06 10:03:51;;;;;;;;;;;3.10;99.90;;;2.05;100.00;95290.31;10421881;28;1885;-81
2021/12/06 10:08:54;;;;;;;;;;;3.10;99.90;;;2.36;100.00;95289.09;10396594;28;1956;-81
2021/12/06 10:13:57;;;;;;;;;;;3.50;99.90;;;2.16;100.00;95283.34;10415261;28;1969;-81
2021/12/06 10:19:00;;;;;;;;;;;3.10;99.90;;;1.96;100.00;95280.25;10419681;28;1870;-82
2021/12/06 10:24:03;;;;;;;;;;;3.30;99.90;;;2.16;100.00;95284.19;10397701;28;1908;-82
2021/12/06 10:29:06;;;;;;;;;;;3.00;99.90;;;2.35;100.00;95297.28;10421446;28;1966;-85
2021/12/06 10:34:09;;;;;;;;;;;3.10;99.90;;;2.37;100.00;95292.56;10406534;28;1929;-79
2021/12/06 10:39:12;;;;;;;;;;;3.20;99.90;;;2.19;100.00;95295.34;10407498;28;1945;-81
2021/12/06 10:44:15;;;;;;;;;;;4.40;99.90;;;2.35;100.00;95286.66;10390278;28;1873;-79
2021/12/06 10:49:17;;;;;;;;;;;3.20;99.90;;;2.24;100.00;95290.16;10389302;28;1981;-80
2021/12/06 10:54:30;;;;;;;;;;;3.20;99.90;;;2.32;100.00;95292.44;10409220;28;1936;-79
2021/12/06 10:59:33;;;;;;;;;;;4.30;99.90;;;2.22;100.00;95292.22;10393206;28;1740;-81
2021/12/06 11:04:36;;;;;;;;;;;3.20;99.90;;;1.87;100.00;95288.56;10386119;28;1979;-80
2021/12/06 11:09:39;;;;;;;;;;;3.80;99.90;;;1.79;100.00;95301.38;10416163;28;1833;-84
2021/12/06 11:14:43;;;;;;;;;;;3.40;99.90;;;1.64;100.00;95296.50;10403368;28;1730;-85
2021/12/06 11:19:46;;;;;;;;;;;2.80;99.90;;;1.91;100.00;95302.19;10403839;28;1963;-84
2021/12/06 11:24:51;;;;;;;;;;;2.80;99.90;;;2.12;100.00;95293.63;10446890;28;2109;-87
2021/12/06 11:30:11;;;;;;;;;;;2.90;99.90;;;2.35;100.00;95298.09;10433904;28;1900;-87
2021/12/06 11:40:54;;;;;;;;;;;4.00;99.90;;;2.42;100.00;95297.97;10261774;28;2162;-76
2021/12/06 11:45:57;;;;;;;;;;;3.40;99.90;;;2.78;100.00;95290.72;10303106;28;1978;-77
2021/12/06 11:51:00;;;;;;;;;;;3.30;99.90;;;2.71;100.00;95304.94;10306026;28;1996;-77
2021/12/06 11:56:03;;;;;;;;;;;3.60;99.90;;;2.48;100.00;95297.00;10270510;28;1848;-75
2021/12/06 12:01:06;;;;;;;;;;;3.80;99.90;;;2.50;100.00;95300.25;10280714;28;1877;-76
2021/12/06 12:06:09;;;;;;;;;;;3.60;99.90;;;2.29;100.00;95290.25;10292325;28;1952;-75
2021/12/06 12:11:12;;;;;;;;;;;3.30;99.90;;;2.16;100.00;95294.78;10272837;28;1912;-75
2021/12/06 12:16:17;;;;;;;;;;;3.20;99.90;;;2.49;100.00;95303.97;10286500;28;1911;-75
2021/12/06 12:21:20;;;;;;;;;;;3.30;99.90;;;2.53;100.00;95299.78;10281078;28;1969;-74
2021/12/06 12:26:23;;;;;;;;;;;3.40;99.90;;;2.70;100.00;95290.06;10297619;28;1917;-76
2021/12/06 12:31:27;;;;;;;;;;;3.60;99.90;;;2.55;100.00;95307.53;10297083;28;1662;-77
2021/12/06 12:36:34;;;;;;;;;;;3.60;99.90;;;2.41;100.00;95306.94;10285052;28;2055;-75
2021/12/06 12:41:37;;;;;;;;;;;3.40;99.90;;;2.42;100.00;95305.94;10281245;28;1806;-73
2021/12/06 12:46:39;;;;;;;;;;;3.40;99.90;;;2.35;100.00;95305.22;10285564;28;1972;-72
2021/12/06 12:51:48;;;;;;;;;;;3.30;99.90;;;2.20;100.00;95304.91;10262183;28;1950;-76
2021/12/06 12:56:51;;;;;;;;;;;3.20;99.90;;;2.17;100.00;95307.00;10279505;28;1960;-69
2021/12/06 13:01:54;;;;;;;;;;;3.20;99.90;;;2.10;100.00;95308.97;10286158;28;1885;-69
2021/12/06 13:06:57;;;;;;;;;;;3.50;99.90;;;1.94;100.00;95322.91;10300304;28;1982;-74
2021/12/06 13:12:02;;;;;;;;;;;3.10;99.90;;;1.85;100.00;95319.81;10292466;28;1985;-72
2021/12/06 13:17:08;;;;;;;;;;;2.90;99.90;;;2.04;100.00;95309.09;10291363;28;1893;-76
2021/12/06 13:22:13;;;;;;;;;;;3.30;99.90;;;2.05;100.00;95302.75;10295264;28;1881;-76
2021/12/06 13:27:16;;;;;;;;;;;3.00;99.90;;;1.94;100.00;95307.00;10290408;28;2023;-76
2021/12/06 13:32:31;;;;;;;;;;;3.00;99.90;;;1.73;100.00;95318.19;10299306;28;1832;-76
2021/12/06 13:37:33;;;;;;;;;;;3.00;99.90;;;1.75;100.00;95311.63;10292397;28;1882;-76
2021/12/06 13:42:36;;;;;;;;;;;2.00;99.90;;;1.84;100.00;95317.38;10304952;28;1855;-76
2021/12/06 13:47:39;;;;;;;;;;;2.80;99.90;;;1.66;100.00;95309.53;10290706;28;1929;-75
2021/12/06 13:52:42;;;;;;;;;;;2.80;99.90;;;1.71;100.00;95309.63;10294999;28;1883;-75
2021/12/06 13:57:45;;;;;;;;;;;2.70;99.90;;;1.83;100.00;95313.91;10280313;28;1721;-70
2021/12/06 14:02:48;;;;;;;;;;;2.80;99.90;;;2.10;100.00;95316.94;10304907;28;1850;-72
2021/12/06 14:07:52;;;;;;;;;;;2.90;99.90;;;2.12;100.00;95328.09;10280898;28;1927;-73
2021/12/06 14:12:55;;;;;;;;;;;3.00;99.90;;;2.05;100.00;95326.63;10281709;28;2045;-73
2021/12/06 14:17:58;;;;;;;;;;;3.30;99.90;;;1.89;100.00;95333.41;10295449;28;1882;-73
2021/12/06 14:23:01;;;;;;;;;;;3.00;99.90;;;1.95;100.00;95319.22;10274250;28;1920;-74
2021/12/06 14:28:04;;;;;;;;;;;3.00;99.90;;;1.90;100.00;95332.34;10289240;28;1991;-72
2021/12/06 14:33:07;;;;;;;;;;;3.00;99.90;;;2.01;100.00;95322.81;10279226;28;1965;-74
2021/12/06 14:38:10;;;;;;;;;;;3.20;99.90;;;2.01;100.00;95323.59;10282296;28;1890;-71
2021/12/06 14:43:13;;;;;;;;;;;3.10;99.90;;;1.88;100.00;95323.84;10267867;28;2118;-74
2021/12/06 14:48:21;;;;;;;;;;;3.20;99.90;;;1.74;100.00;95311.84;10271518;28;1948;-73
2021/12/06 14:53:34;;;;;;;;;;;3.00;99.90;;;1.61;100.00;95311.03;10283736;28;1895;-73
2021/12/06 14:58:39;;;;;;;;;;;2.90;99.90;;;1.58;100.00;95323.91;10273636;28;1943;-72
2021/12/06 15:03:44;;;;;;;;;;;2.80;99.90;;;1.60;100.00;95322.66;10273483;28;1759;-72
2021/12/06 15:08:48;;;;;;;;;;;2.80;99.90;;;1.53;100.00;95324.63;10287688;28;1933;-73
2021/12/06 15:13:51;;;;;;;;;;;2.70;99.90;;;1.45;100.00;95334.72;10293641;28;2086;-72
2021/12/06 15:18:54;;;;;;;;;;;2.60;99.90;;;1.38;100.00;95337.47;10299894;28;1949;-72
2021/12/06 15:23:58;;;;;;;;;;;2.50;99.90;;;1.35;100.00;95343.22;10274461;28;1953;-72
2021/12/06 15:29:01;;;;;;;;;;;2.50;99.90;;;1.36;100.00;95350.13;10274701;28;2025;-73
2021/12/06 15:34:05;;;;;;;;;;;2.50;99.90;;;1.40;100.00;95345.16;10275264;28;1883;-72
2021/12/06 15:39:09;;;;;;;;;;;2.50;99.90;;;1.35;100.00;95351.16;10281625;28;1838;-72
2021/12/06 15:44:15;;;;;;;;;;;2.50;99.90;;;1.41;100.00;95350.25;10282000;28;1945;-74
2021/12/06 15:49:20;;;;;;;;;;;2.50;99.90;;;1.38;100.00;95355.19;10282966;28;1974;-73
2021/12/06 15:54:24;;;;;;;;;;;2.50;99.90;;;1.24;100.00;95352.75;10278886;28;1941;-71
2021/12/06 15:59:27;;;;;;;;;;;2.50;99.90;;;1.21;100.00;95358.50;10279058;28;2069;-73
2021/12/06 16:04:30;;;;;;;;;;;2.40;99.90;;;1.07;100.00;95371.09;10285245;28;1937;-73
2021/12/06 16:09:33;;;;;;;;;;;2.30;99.90;;;1.01;100.00;95361.38;10287361;28;1914;-74
2021/12/06 16:14:37;;;;;;;;;;;2.20;99.90;;;1.05;100.00;95361.75;10285554;28;1866;-75
2021/12/06 16:19:40;;;;;;;;;;;2.50;99.90;;;1.04;100.00;95358.31;10282934;28;1970;-73
2021/12/06 16:24:45;;;;;;;;;;;2.20;99.90;;;1.00;100.00;95358.97;10286238;28;1953;-73
2021/12/06 16:29:49;;;;;;;;;;;2.20;99.90;;;1.01;100.00;95358.75;10285114;28;1981;-74
2021/12/06 16:34:52;;;;;;;;;;;2.20;99.90;;;1.02;100.00;95355.09;10285842;28;1859;-72
2021/12/06 16:39:55;;;;;;;;;;;2.20;99.90;;;1.02;100.00;95357.72;10272064;28;1955;-73
2021/12/06 16:44:58;;;;;;;;;;;2.20;99.90;;;1.05;100.00;95359.91;10267177;28;2228;-70
2021/12/06 16:50:10;;;;;;;;;;;2.10;99.90;;;1.04;100.00;95360.97;10276906;28;2010;-74
2021/12/06 16:55:15;;;;;;;;;;;2.20;99.90;;;1.09;100.00;95362.94;10269686;28;1990;-74
2021/12/06 17:00:40;;;;;;;;;;;2.20;99.90;;;1.16;100.00;95358.34;10282757;28;1891;-75
2021/12/06 17:06:04;;;;;;;;;;;2.30;99.90;;;1.18;100.00;95360.78;10281209;28;1982;-73
2021/12/06 17:11:08;;;;;;;;;;;2.30;99.90;;;1.26;100.00;95352.50;10283247;28;1952;-73
2021/12/06 17:16:11;;;;;;;;;;;2.40;99.90;;;1.26;98.93;95352.50;10284176;28;1982;-74
2021/12/06 17:21:15;;;;;;;;;;;2.40;99.90;;;1.21;100.00;95347.91;10263313;28;2177;-73
2021/12/06 17:26:19;;;;;;;;;;;2.40;99.90;;;1.24;100.00;95344.00;10278198;28;2026;-73
2021/12/06 17:31:21;;;;;;;;;;;2.40;99.90;;;1.20;99.89;95343.63;10282968;28;2133;-76
2021/12/06 17:36:24;;;;;;;;;;;2.40;99.90;;;1.25;98.47;95350.91;10287985;28;2247;-74
2021/12/06 17:41:28;;;;;;;;;;;2.40;99.90;;;1.27;99.11;95354.13;10293317;28;1968;-73
2021/12/06 17:46:32;;;;;;;;;;;2.50;99.90;;;1.23;100.00;95340.53;10279592;28;2155;-75
2021/12/06 17:51:34;;;;;;;;;;;2.40;99.90;;;1.23;99.92;95335.25;10289316;28;1888;-75
2021/12/06 17:56:39;;;;;;;;;;;2.80;99.90;;;1.30;99.15;95337.78;10274765;28;2116;-73
2021/12/06 18:01:58;;;;;;;;;;;2.40;99.90;;;1.34;98.65;95341.63;10280575;28;2196;-72
2021/12/06 18:07:02;;;;;;;;;;;2.40;99.90;;;1.39;100.00;95338.25;10286172;28;2291;-74
2021/12/06 18:12:05;;;;;;;;;;;2.50;99.90;;;1.30;99.98;95330.66;10275319;28;2243;-74
2021/12/06 18:17:10;;;;;;;;;;;2.40;99.90;;;1.30;100.00;95332.50;10278788;28;2042;-74
2021/12/06 18:22:13;;;;;;;;;;;2.50;99.90;;;1.04;100.00;95331.84;10286298;28;1941;-72
2021/12/06 18:27:18;;;;;;;;;;;2.30;99.90;;;0.99;100.00;95338.84;10284033;28;1996;-72
2021/12/06 18:32:22;;;;;;;;;;;2.10;99.90;;;1.00;100.00;95325.38;10291110;28;1969;-72
2021/12/06 18:37:26;;;;;;;;;;;2.10;99.90;;;1.06;100.00;95316.53;10291185;28;1878;-75
2021/12/06 18:42:38;;;;;;;;;;;2.20;99.90;;;1.07;100.00;95301.44;10287591;28;1993;-75
2021/12/06 18:47:44;;;;;;;;;;;2.20;99.90;;;1.13;100.00;95289.16;10277566;28;1986;-74
2021/12/06 18:52:47;;;;;;;;;;;2.20;99.90;;;1.02;100.00;95291.56;10284764;28;1941;-74
2021/12/06 18:57:50;;;;;;;;;;;2.20;99.90;;;0.93;100.00;95287.59;10277744;28;1877;-75
2021/12/06 19:02:53;;;;;;;;;;;2.60;99.90;;;0.81;100.00;95289.41;10286850;28;2087;-75
2021/12/06 19:07:57;;;;;;;;;;;2.10;99.90;;;0.71;100.00;95270.63;10290221;28;1929;-74
2021/12/06 19:12:59;;;;;;;;;;;2.00;99.90;;;0.56;100.00;95264.91;10295285;28;1973;-74
2021/12/06 19:18:02;;;;;;;;;;;2.00;99.90;;;0.54;100.00;95255.38;10296099;28;1854;-75
2021/12/06 19:23:05;;;;;;;;;;;2.00;99.90;;;0.52;100.00;95252.16;10289296;28;1960;-74
2021/12/06 19:28:08;;;;;;;;;;;1.80;99.90;;;0.62;100.00;95251.59;10282251;28;1977;-75
2021/12/06 19:33:11;;;;;;;;;;;1.80;99.90;;;0.70;100.00;95253.94;10280002;28;1976;-74
2021/12/06 19:38:14;;;;;;;;;;;1.90;99.90;;;0.78;100.00;95242.25;10274159;28;2385;-74
2021/12/06 19:43:17;;;;;;;;;;;1.90;99.90;;;0.80;100.00;95242.81;10278374;28;1389;-74
2021/12/06 19:48:21;;;;;;;;;;;2.00;99.90;;;0.76;100.00;95234.53;10283370;28;1910;-75
2021/12/06 19:53:24;;;;;;;;;;;2.00;99.90;;;0.74;100.00;95238.41;10272377;28;1487;-77
2021/12/06 19:58:27;;;;;;;;;;;2.00;99.90;;;0.79;100.00;95236.72;10280127;28;1367;-75
2021/12/06 20:03:30;;;;;;;;;;;1.90;99.90;;;0.80;100.00;95242.81;10271476;28;1675;-74
2021/12/06 20:08:34;;;;;;;;;;;2.00;99.90;;;0.83;100.00;95239.72;10276338;28;1914;-76
2021/12/06 20:13:39;;;;;;;;;;;2.00;99.90;;;0.82;100.00;95238.09;10289836;28;1364;-75
2021/12/06 20:18:43;;;;;;;;;;;2.00;99.90;;;0.88;100.00;95234.53;10290649;28;1530;-75
2021/12/06 20:23:49;;;;;;;;;;;2.00;99.90;;;0.85;100.00;95235.00;10273981;28;1322;-74
2021/12/06 20:28:52;;;;;;;;;;;2.10;99.90;;;0.94;100.00;95238.94;10267690;28;1918;-74
2021/12/06 20:33:55;;;;;;;;;;;2.10;99.90;;;0.95;100.00;95237.09;10277568;28;1432;-76
2021/12/06 20:38:57;;;;;;;;;;;2.10;99.90;;;0.91;100.00;95234.09;10290082;28;1409;-74
2021/12/06 20:44:01;;;;;;;;;;;2.10;99.90;;;0.83;100.00;95223.84;10280448;28;1269;-76
2021/12/06 20:49:04;;;;;;;;;;;2.10;99.90;;;0.62;100.00;95222.50;10268507;28;1918;-74
2021/12/06 20:54:07;;;;;;;;;;;2.20;99.90;;;0.40;100.00;95206.34;10294161;28;1344;-75
2021/12/06 20:59:10;;;;;;;;;;;1.80;99.90;;;0.30;100.00;95211.34;10287851;28;1864;-76
2021/12/06 21:04:13;;;;;;;;;;;1.70;99.90;;;0.13;100.00;95218.28;10287709;28;1799;-75
2021/12/06 21:09:19;;;;;;;;;;;1.60;99.90;;;0.03;100.00;95210.84;10293440;28;1981;-75
2021/12/06 21:14:39;;;;;;;;;;;1.50;99.90;;;0.02;100.00;95213.72;10293352;28;1532;-76
2021/12/06 21:19:50;;;;;;;;;;;1.50;99.90;;;0.04;100.00;95209.03;10292669;28;1374;-76
2021/12/06 21:24:53;;;;;;;;;;;1.40;99.90;;;0.04;100.00;95211.66;10299779;28;1503;-76
2021/12/06 21:29:56;;;;;;;;;;;1.40;99.90;;;-0.03;100.00;95207.25;10289173;28;1985;-75
2021/12/06 21:35:01;;;;;;;;;;;1.30;99.90;;;-0.01;100.00;95212.31;10280368;28;1442;-75
2021/12/06 21:40:05;;;;;;;;;;;1.40;99.90;;;-0.14;100.00;95213.28;10293773;28;1558;-75
2021/12/06 21:45:08;;;;;;;;;;;1.30;99.90;;;-0.21;100.00;95215.19;10286340;28;1448;-76
2021/12/06 21:50:11;;;;;;;;;;;1.20;99.90;;;-0.28;100.00;95209.97;10289494;28;1979;-76
2021/12/06 21:55:14;;;;;;;;;;;1.10;99.90;;;-0.40;100.00;95200.34;10291083;28;1334;-76
2021/12/06 22:00:17;;;;;;;;;;;1.20;99.90;;;-0.51;100.00;95203.72;10288416;28;1454;-76
2021/12/06 22:05:20;;;;;;;;;;;0.90;99.90;;;-0.61;100.00;95193.66;10282334;28;1479;-76
2021/12/06 22:10:27;;;;;;;;;;;0.80;99.90;;;-0.63;100.00;95203.66;10286802;28;1910;-75
2021/12/06 22:15:30;;;;;;;;;;;0.70;99.90;;;-0.64;100.00;95202.81;10289301;28;1513;-75
2021/12/06 22:20:34;;;;;;;;;;;0.70;99.90;;;-0.64;100.00;95205.44;10281746;28;1866;-75
2021/12/06 22:25:37;;;;;;;;;;;1.10;99.90;;;-0.68;100.00;95193.72;10289613;28;1819;-76
2021/12/06 22:30:40;;;;;;;;;;;0.70;99.90;;;-0.75;100.00;95198.28;10277383;28;1981;-75
2021/12/06 22:35:43;;;;;;;;;;;0.80;99.90;;;-0.77;100.00;95196.84;10286290;28;1894;-77
2021/12/06 22:40:46;;;;;;;;;;;0.70;99.90;;;-0.79;100.00;95193.63;10276729;28;2287;-74
2021/12/06 22:45:49;;;;;;;;;;;0.60;99.90;;;-0.82;100.00;95185.13;10284528;28;1839;-75
2021/12/06 22:50:52;;;;;;;;;;;0.70;99.90;;;-0.81;100.00;95167.47;10288069;28;1918;-74
2021/12/06 22:55:55;;;;;;;;;;;0.70;99.90;;;-0.90;100.00;95158.19;10282119;28;1998;-75
2021/12/06 23:00:58;;;;;;;;;;;0.80;99.90;;;-0.88;100.00;95153.53;10281838;28;1906;-75
2021/12/06 23:06:02;;;;;;;;;;;0.40;99.90;;;-0.81;100.00;95135.81;10276196;28;1890;-76
2021/12/06 23:11:04;;;;;;;;;;;0.40;99.90;;;-0.87;100.00;95123.47;10284343;28;1950;-76
2021/12/06 23:16:07;;;;;;;;;;;0.40;99.90;;;-0.87;100.00;95105.00;10274897;28;1945;-75
2021/12/06 23:21:10;;;;;;;;;;;0.60;99.90;;;-0.88;100.00;95092.84;10263550;28;1945;-76
2021/12/06 23:26:14;;;;;;;;;;;0.50;99.90;;;-0.90;100.00;95094.88;10283486;28;1895;-76
2021/12/06 23:31:17;;;;;;;;;;;0.60;99.90;;;-0.93;100.00;95103.25;10278304;28;2307;-75
2021/12/06 23:36:24;;;;;;;;;;;0.50;99.90;;;-0.92;100.00;95104.84;10278658;28;1934;-75
2021/12/06 23:41:32;;;;;;;;;;;0.40;99.90;;;-0.95;100.00;95110.56;10286849;28;1896;-75
2021/12/06 23:46:37;;;;;;;;;;;0.40;99.90;;;-0.99;100.00;95110.19;10282688;28;1918;-74
2021/12/06 23:51:40;;;;;;;;;;;0.50;99.90;;;-1.00;100.00;95110.41;10279390;28;1987;-75
2021/12/06 23:56:46;;;;;;;;;;;0.30;99.90;;;-1.00;100.00;95107.78;10285041;28;1883;-75
